createdAt,value
2024-04-12T00:03:03.065Z,12.50
2024-04-12T00:13:05.541Z,12.50
2024-04-12T00:23:08.100Z,12.40
2024-04-12T00:33:11.807Z,12.20
2024-04-12T00:43:19.067Z,12.00
2024-04-12T00:53:23.679Z,11.90
2024-04-12T01:03:26.010Z,11.80
2024-04-12T01:13:29.120Z,11.70
2024-04-12T01:23:31.635Z,11.60
2024-04-12T01:33:40.075Z,11.60
2024-04-12T01:43:42.220Z,11.50
2024-04-12T01:53:44.312Z,11.40
2024-04-12T02:03:49.032Z,11.40
2024-04-12T02:13:53.768Z,11.30
2024-04-12T02:23:56.048Z,11.30
2024-04-12T02:33:59.502Z,11.20
2024-04-12T02:44:05.123Z,11.00
2024-04-12T02:54:07.264Z,10.90
2024-04-12T03:04:11.346Z,10.90
2024-04-12T03:14:14.173Z,10.90
2024-04-12T03:24:16.382Z,10.80
2024-04-12T03:34:18.540Z,10.80
2024-04-12T03:44:21.108Z,10.80
2024-04-12T03:54:28.138Z,10.80
2024-04-12T04:04:38.590Z,10.80
2024-04-12T04:14:49.016Z,10.70
2024-04-12T04:24:54.929Z,10.70
2024-04-12T04:35:06.680Z,10.60
2024-04-12T04:45:09.788Z,10.60
2024-04-12T04:55:13.702Z,10.60
2024-04-12T05:05:26.015Z,10.60
2024-04-12T05:15:50.279Z,10.60
2024-04-12T05:25:55.086Z,10.60
2024-04-12T05:35:57.950Z,10.60
2024-04-12T05:46:02.100Z,10.60
2024-04-12T05:56:22.890Z,10.70
2024-04-12T06:06:25.760Z,10.70
2024-04-12T06:16:28.580Z,10.90
2024-04-12T06:26:30.755Z,11.10
2024-04-12T06:36:35.332Z,11.40
2024-04-12T06:46:37.757Z,11.80
2024-04-12T06:56:39.930Z,12.20
2024-04-12T07:06:42.453Z,12.70
2024-04-12T07:16:44.619Z,13.30
2024-04-12T07:26:48.559Z,13.80
2024-04-12T07:36:53.646Z,14.40
2024-04-12T07:46:59.713Z,14.90
2024-04-12T07:57:09.246Z,15.30
2024-04-12T08:07:19.562Z,15.60
2024-04-12T08:17:29.305Z,15.90
2024-04-12T08:27:32.856Z,16.30
2024-04-12T08:37:41.192Z,16.60
2024-04-12T08:48:02.703Z,16.90
2024-04-12T08:58:08.128Z,17.30
2024-04-12T09:08:19.211Z,17.60
2024-04-12T09:18:28.539Z,17.80
2024-04-12T09:28:33.664Z,18.00
2024-04-12T09:38:40.777Z,18.10
2024-04-12T09:49:02.512Z,18.30
2024-04-12T09:59:44.835Z,18.50
2024-04-12T10:10:06.040Z,18.70
2024-04-12T10:20:29.658Z,18.80
2024-04-12T10:31:04.154Z,18.90
2024-04-12T10:41:09.150Z,19.10
2024-04-12T10:51:16.124Z,19.10
2024-04-12T11:01:19.110Z,19.10
2024-04-12T11:11:27.622Z,19.20
2024-04-12T11:21:48.918Z,19.40
2024-04-12T11:31:54.132Z,19.50
2024-04-12T11:41:56.903Z,19.60
2024-04-12T11:52:03.067Z,19.90
2024-04-12T12:02:07.169Z,20.20
2024-04-12T12:12:13.086Z,20.60
2024-04-12T12:22:15.918Z,20.80
2024-04-12T12:32:18.078Z,20.80
2024-04-12T12:42:21.287Z,21.10
2024-04-12T12:52:24.050Z,21.20
2024-04-12T13:02:26.908Z,21.70
2024-04-12T13:12:30.897Z,22.00
2024-04-12T13:22:34.199Z,22.10
2024-04-12T13:32:43.897Z,22.50
2024-04-12T13:42:49.367Z,22.90
2024-04-12T13:52:51.502Z,23.10
2024-04-12T14:02:55.478Z,23.20
2024-04-12T14:12:57.619Z,23.50
2024-04-12T14:22:59.713Z,23.60
2024-04-12T14:33:01.969Z,23.70
2024-04-12T14:43:07.433Z,23.90
2024-04-12T14:53:09.639Z,24.30
2024-04-12T15:03:30.312Z,24.30
2024-04-12T15:13:51.095Z,24.10
2024-04-12T15:24:12.101Z,24.00
2024-04-12T15:34:32.611Z,23.90
2024-04-12T15:44:53.159Z,23.70
2024-04-12T15:55:08.936Z,23.50
2024-04-12T16:05:29.666Z,23.30
2024-04-12T16:15:31.782Z,23.00
2024-04-12T16:25:35.817Z,22.50
2024-04-12T16:35:40.895Z,22.40
2024-04-12T16:45:43.276Z,22.10
2024-04-12T16:55:45.494Z,21.70
2024-04-12T17:05:48.050Z,21.30
2024-04-12T17:15:51.326Z,21.00
2024-04-12T17:25:53.450Z,20.70
2024-04-12T17:35:59.056Z,20.40
2024-04-12T17:46:01.928Z,20.00
2024-04-12T17:56:04.558Z,19.60
2024-04-12T18:06:11.431Z,19.40
2024-04-12T18:16:13.566Z,19.40
2024-04-12T18:26:15.750Z,19.30
2024-04-12T18:36:25.444Z,19.20
2024-04-12T18:46:27.603Z,19.10
2024-04-12T18:56:30.215Z,19.00
2024-04-12T19:06:33.935Z,18.70
2024-04-12T19:16:36.006Z,18.60
2024-04-12T19:26:38.111Z,18.40
2024-04-12T19:36:44.172Z,18.10
2024-04-12T19:46:46.258Z,17.80
2024-04-12T19:56:48.357Z,17.50
2024-04-12T20:06:52.963Z,17.20
2024-04-12T20:16:55.615Z,17.00
2024-04-12T20:26:58.009Z,16.90
2024-04-12T20:37:00.123Z,16.70
2024-04-12T20:47:02.294Z,16.40
2024-04-12T20:57:04.886Z,16.20
2024-04-12T21:07:08.037Z,16.00
2024-04-12T21:17:12.958Z,15.80
2024-04-12T21:27:15.146Z,15.50
2024-04-12T21:37:17.254Z,15.40
2024-04-12T21:47:19.434Z,15.30
2024-04-12T21:57:21.902Z,15.10
2024-04-12T22:07:24.039Z,15.00
2024-04-12T22:17:26.191Z,15.00
2024-04-12T22:27:28.937Z,14.90
2024-04-12T22:37:31.057Z,14.80
2024-04-12T22:47:33.553Z,14.70
2024-04-12T22:57:39.114Z,14.60
2024-04-12T23:07:41.302Z,14.50
2024-04-12T23:17:43.626Z,14.40
2024-04-12T23:27:45.889Z,14.40
2024-04-12T23:37:49.170Z,14.30
2024-04-12T23:47:51.570Z,14.30
2024-04-12T23:57:53.855Z,14.20
